createdAt,value
2019-02-06T00:00:59.299Z,2.56
2019-02-06T00:01:59.455Z,2.51
2019-02-06T00:02:59.621Z,2.50
2019-02-06T00:03:59.847Z,2.44
2019-02-06T00:04:59.855Z,2.53
2019-02-06T00:06:00.088Z,2.57
2019-02-06T00:07:00.218Z,2.54
2019-02-06T00:08:00.484Z,2.65
2019-02-06T00:09:00.634Z,2.61
2019-02-06T00:10:00.826Z,2.54
2019-02-06T00:11:01.002Z,2.60
2019-02-06T00:12:01.175Z,2.60
2019-02-06T00:13:01.330Z,2.62
2019-02-06T00:14:01.566Z,2.67
2019-02-06T00:15:02.300Z,2.68
2019-02-06T00:16:02.006Z,2.68
2019-02-06T00:17:02.233Z,2.71
2019-02-06T00:18:02.423Z,2.62
2019-02-06T00:19:02.447Z,2.71
2019-02-06T00:20:02.632Z,2.67
2019-02-06T00:21:02.844Z,2.79
2019-02-06T00:22:03.086Z,2.61
2019-02-06T00:23:03.209Z,2.65
2019-02-06T00:24:03.389Z,2.71
2019-02-06T00:25:03.564Z,2.72
2019-02-06T00:26:03.826Z,2.72
2019-02-06T00:27:04.028Z,2.60
2019-02-06T00:28:04.183Z,2.56
2019-02-06T00:29:04.324Z,2.61
2019-02-06T00:30:04.540Z,2.64
2019-02-06T00:31:04.774Z,2.69
2019-02-06T00:32:05.196Z,2.53
2019-02-06T00:33:05.058Z,2.60
2019-02-06T00:34:05.226Z,2.50
2019-02-06T00:35:05.428Z,2.50
2019-02-06T00:36:06.560Z,2.42
2019-02-06T00:37:05.725Z,2.50
2019-02-06T00:38:05.954Z,2.42
2019-02-06T00:39:06.098Z,2.43
2019-02-06T00:40:06.254Z,2.32
2019-02-06T00:41:06.500Z,2.26
2019-02-06T00:42:06.610Z,2.17
2019-02-06T00:43:06.692Z,2.29
2019-02-06T00:44:06.852Z,2.20
2019-02-06T00:45:07.006Z,2.20
2019-02-06T00:46:07.220Z,2.22
2019-02-06T00:47:07.383Z,2.17
2019-02-06T00:48:07.544Z,2.18
2019-02-06T00:49:07.690Z,2.15
2019-02-06T00:50:07.863Z,2.10
2019-02-06T00:51:08.005Z,2.11
2019-02-06T00:52:08.187Z,2.02
2019-02-06T00:53:08.380Z,2.10
2019-02-06T00:54:08.545Z,2.07
2019-02-06T00:55:08.709Z,1.94
2019-02-06T00:56:08.875Z,2.10
2019-02-06T00:57:09.033Z,2.04
2019-02-06T00:58:09.197Z,1.97
2019-02-06T00:59:09.345Z,1.97
2019-02-06T01:00:09.530Z,1.89
2019-02-06T01:01:09.677Z,2.07
2019-02-06T01:02:09.865Z,1.99
2019-02-06T01:03:09.992Z,1.94
2019-02-06T01:04:10.265Z,1.88
2019-02-06T01:05:10.348Z,1.85
2019-02-06T01:06:10.496Z,1.77
2019-02-06T01:07:10.646Z,1.74
2019-02-06T01:08:10.816Z,1.76
2019-02-06T01:09:10.983Z,1.76
2019-02-06T01:10:11.239Z,1.67
2019-02-06T01:11:11.300Z,1.62
2019-02-06T01:12:11.458Z,1.67
2019-02-06T01:13:11.623Z,1.70
2019-02-06T01:14:11.814Z,1.67
2019-02-06T01:15:11.981Z,1.68
2019-02-06T01:16:12.148Z,1.71
2019-02-06T01:17:12.274Z,1.66
2019-02-06T01:18:12.441Z,1.62
2019-02-06T01:19:12.592Z,1.62
2019-02-06T01:20:12.739Z,1.63
2019-02-06T01:21:12.917Z,1.53
2019-02-06T01:22:13.082Z,1.56
2019-02-06T01:23:16.056Z,1.55
2019-02-06T01:24:13.396Z,1.56
2019-02-06T01:25:13.562Z,1.53
2019-02-06T01:26:13.711Z,1.59
2019-02-06T01:27:13.874Z,1.56
2019-02-06T01:28:14.033Z,1.62
2019-02-06T01:29:14.200Z,1.52
2019-02-06T01:30:14.362Z,1.44
2019-02-06T01:31:14.540Z,1.62
2019-02-06T01:32:14.727Z,1.55
2019-02-06T01:33:14.877Z,1.50
2019-02-06T01:34:15.023Z,1.49
2019-02-06T01:35:15.215Z,1.52
2019-02-06T01:36:15.384Z,1.44
2019-02-06T01:37:15.590Z,1.42
2019-02-06T01:38:16.220Z,1.52
2019-02-06T01:39:15.884Z,1.41
2019-02-06T01:40:16.041Z,1.40
2019-02-06T01:41:20.987Z,1.37
2019-02-06T01:42:20.140Z,1.34
2019-02-06T01:43:16.554Z,1.37
2019-02-06T01:44:16.723Z,1.37
2019-02-06T01:45:17.835Z,1.30
2019-02-06T01:46:17.059Z,1.34
2019-02-06T01:47:17.236Z,1.34
2019-02-06T01:48:17.392Z,1.40
2019-02-06T01:49:17.539Z,1.32
2019-02-06T01:50:17.731Z,1.30
2019-02-06T01:51:17.865Z,1.32
2019-02-06T01:52:18.055Z,1.24
2019-02-06T01:53:18.222Z,1.40
2019-02-06T01:54:18.373Z,1.28
2019-02-06T01:55:18.567Z,1.19
2019-02-06T01:56:18.704Z,1.20
2019-02-06T01:57:18.884Z,1.31
2019-02-06T01:58:19.025Z,1.17
2019-02-06T01:59:19.210Z,1.24
2019-02-06T02:00:19.356Z,1.23
2019-02-06T02:01:19.529Z,1.13
2019-02-06T02:02:19.739Z,1.28
2019-02-06T02:03:19.794Z,1.34
2019-02-06T02:04:20.008Z,1.28
2019-02-06T02:05:20.149Z,1.16
2019-02-06T02:06:20.341Z,1.22
2019-02-06T02:07:20.508Z,1.08
2019-02-06T02:08:20.681Z,1.06
2019-02-06T02:09:20.848Z,1.05
2019-02-06T02:10:20.986Z,0.99
2019-02-06T02:11:21.186Z,1.04
2019-02-06T02:12:21.349Z,1.08
2019-02-06T02:13:21.510Z,1.12
2019-02-06T02:14:21.778Z,1.06
2019-02-06T02:15:21.833Z,1.06
2019-02-06T02:16:22.019Z,1.02
2019-02-06T02:17:22.146Z,1.02
2019-02-06T02:18:22.327Z,1.06
2019-02-06T02:19:22.488Z,0.95
2019-02-06T02:20:22.641Z,0.92
2019-02-06T02:21:22.799Z,0.84
2019-02-06T02:22:22.954Z,0.88
2019-02-06T02:23:23.114Z,0.96
2019-02-06T02:24:23.369Z,1.02
2019-02-06T02:25:23.479Z,1.01
2019-02-06T02:26:23.624Z,1.01
2019-02-06T02:27:23.796Z,1.06
2019-02-06T02:28:23.966Z,1.05
2019-02-06T02:29:24.132Z,1.01
2019-02-06T02:30:24.305Z,1.02
2019-02-06T02:31:24.431Z,0.95
2019-02-06T02:32:24.606Z,0.95
2019-02-06T02:33:24.779Z,0.80
2019-02-06T02:34:24.971Z,0.91
2019-02-06T02:35:25.113Z,0.96
2019-02-06T02:36:25.301Z,0.91
2019-02-06T02:37:25.495Z,1.06
2019-02-06T02:38:25.679Z,0.83
2019-02-06T02:39:25.820Z,0.84
2019-02-06T02:40:25.964Z,0.86
2019-02-06T02:41:26.147Z,0.86
2019-02-06T02:42:26.290Z,0.87
2019-02-06T02:43:26.490Z,0.84
2019-02-06T02:44:26.754Z,0.77
2019-02-06T02:45:26.808Z,0.86
2019-02-06T02:46:26.982Z,0.95
2019-02-06T02:47:27.175Z,0.99
2019-02-06T02:48:27.334Z,0.98
2019-02-06T02:49:27.535Z,0.95
2019-02-06T02:50:29.501Z,1.05
2019-02-06T02:51:27.796Z,0.99
2019-02-06T02:52:27.981Z,0.92
2019-02-06T02:53:28.128Z,0.95
2019-02-06T02:54:28.302Z,0.88
2019-02-06T02:55:28.447Z,0.86
2019-02-06T02:56:28.610Z,0.94
2019-02-06T02:57:28.778Z,1.04
2019-02-06T02:58:33.178Z,0.98
2019-02-06T02:59:29.501Z,0.95
2019-02-06T03:00:29.621Z,1.01
2019-02-06T03:01:29.480Z,0.80
2019-02-06T03:02:29.672Z,0.84
2019-02-06T03:03:29.807Z,0.95
2019-02-06T03:04:29.968Z,0.83
2019-02-06T03:05:30.148Z,0.83
2019-02-06T03:06:30.290Z,0.92
2019-02-06T03:07:30.641Z,0.88
2019-02-06T03:08:30.606Z,0.87
2019-02-06T03:09:30.784Z,0.87
2019-02-06T03:10:30.946Z,0.92
2019-02-06T03:11:31.143Z,0.86
2019-02-06T03:12:31.193Z,0.80
2019-02-06T03:13:31.410Z,0.76
2019-02-06T03:14:31.580Z,0.73
2019-02-06T03:15:31.733Z,0.86
2019-02-06T03:16:31.908Z,0.87
2019-02-06T03:17:32.068Z,0.84
2019-02-06T03:18:32.243Z,0.84
2019-02-06T03:19:32.425Z,0.73
2019-02-06T03:20:32.614Z,0.80
2019-02-06T03:21:32.756Z,0.74
2019-02-06T03:22:33.172Z,0.83
2019-02-06T03:23:33.083Z,0.74
2019-02-06T03:24:33.274Z,0.87
2019-02-06T03:25:33.425Z,0.80
2019-02-06T03:26:33.612Z,0.78
2019-02-06T03:27:33.736Z,0.83
2019-02-06T03:28:33.914Z,0.87
2019-02-06T03:29:34.110Z,0.86
2019-02-06T03:30:34.267Z,0.88
2019-02-06T03:31:34.413Z,0.81
2019-02-06T03:32:34.583Z,0.91
2019-02-06T03:33:34.737Z,0.91
2019-02-06T03:34:34.890Z,0.81
2019-02-06T03:35:35.046Z,0.84
2019-02-06T03:36:40.682Z,0.84
2019-02-06T03:37:35.404Z,0.94
2019-02-06T03:38:35.572Z,0.91
2019-02-06T03:39:35.730Z,0.78
2019-02-06T03:40:35.930Z,0.88
2019-02-06T03:41:36.143Z,0.94
2019-02-06T03:42:36.183Z,0.83
2019-02-06T03:43:36.342Z,0.88
2019-02-06T03:44:36.530Z,0.95
2019-02-06T03:45:36.696Z,0.80
2019-02-06T03:46:36.871Z,0.84
2019-02-06T03:47:37.038Z,0.76
2019-02-06T03:48:37.164Z,0.69
2019-02-06T03:49:37.419Z,0.68
2019-02-06T03:50:37.449Z,0.59
2019-02-06T03:51:37.609Z,0.66
2019-02-06T03:52:37.781Z,0.77
2019-02-06T03:53:37.940Z,0.73
2019-02-06T03:54:38.097Z,0.74
2019-02-06T03:55:38.276Z,0.74
2019-02-06T03:56:38.439Z,0.78
2019-02-06T03:57:38.621Z,0.60
2019-02-06T03:58:38.756Z,0.62
2019-02-06T03:59:38.926Z,0.62
2019-02-06T04:00:39.081Z,0.50
2019-02-06T04:01:39.228Z,0.60
2019-02-06T04:02:39.401Z,0.63
2019-02-06T04:03:39.577Z,0.63
2019-02-06T04:04:39.716Z,0.69
2019-02-06T04:05:39.871Z,0.69
2019-02-06T04:06:52.863Z,0.59
2019-02-06T04:07:40.270Z,0.56
2019-02-06T04:08:40.437Z,0.47
2019-02-06T04:09:40.595Z,0.49
2019-02-06T04:10:40.744Z,0.58
2019-02-06T04:11:40.914Z,0.44
2019-02-06T04:12:41.094Z,0.59
2019-02-06T04:13:41.277Z,0.52
2019-02-06T04:14:41.419Z,0.49
2019-02-06T04:15:41.596Z,0.43
2019-02-06T04:16:41.798Z,0.52
2019-02-06T04:17:41.932Z,0.52
2019-02-06T04:18:42.114Z,0.56
2019-02-06T04:19:42.351Z,0.52
2019-02-06T04:20:42.449Z,0.43
2019-02-06T04:21:42.588Z,0.55
2019-02-06T04:22:42.784Z,0.59
2019-02-06T04:23:42.937Z,0.55
2019-02-06T04:24:43.095Z,0.50
2019-02-06T04:25:43.262Z,0.47
2019-02-06T04:26:43.410Z,0.60
2019-02-06T04:27:43.606Z,0.50
2019-02-06T04:28:43.730Z,0.66
2019-02-06T04:29:43.907Z,0.58
2019-02-06T04:30:44.054Z,0.56
2019-02-06T04:31:44.202Z,0.52
2019-02-06T04:32:44.368Z,0.44
2019-02-06T04:33:44.519Z,0.44
2019-02-06T04:34:44.716Z,0.47
2019-02-06T04:35:44.848Z,0.43
2019-02-06T04:36:45.002Z,0.47
2019-02-06T04:37:45.151Z,0.46
2019-02-06T04:38:45.341Z,0.50
2019-02-06T04:39:45.513Z,0.44
2019-02-06T04:40:45.653Z,0.55
2019-02-06T04:41:45.830Z,0.44
2019-02-06T04:42:46.003Z,0.56
2019-02-06T04:43:46.155Z,0.52
2019-02-06T04:44:46.320Z,0.50
2019-02-06T04:45:46.513Z,0.52
2019-02-06T04:46:46.665Z,0.47
2019-02-06T04:47:46.815Z,0.43
2019-02-06T04:48:46.956Z,0.56
2019-02-06T04:49:47.130Z,0.60
2019-02-06T04:50:47.319Z,0.55
2019-02-06T04:51:47.433Z,0.66
2019-02-06T04:52:47.787Z,0.59
2019-02-06T04:53:47.775Z,0.78
2019-02-06T04:54:47.937Z,0.62
2019-02-06T04:55:48.129Z,0.62
2019-02-06T04:56:48.296Z,0.70
2019-02-06T04:57:48.479Z,0.73
2019-02-06T04:58:48.628Z,0.73
2019-02-06T04:59:48.768Z,0.73
2019-02-06T05:00:48.958Z,0.70
2019-02-06T05:01:49.105Z,0.73
2019-02-06T05:02:49.271Z,0.80
2019-02-06T05:03:49.443Z,0.70
2019-02-06T05:04:49.588Z,0.76
2019-02-06T05:05:49.751Z,0.70
2019-02-06T05:06:49.917Z,0.68
2019-02-06T05:07:50.069Z,0.73
2019-02-06T05:08:50.228Z,0.74
2019-02-06T05:09:50.402Z,0.77
2019-02-06T05:10:50.544Z,0.76
2019-02-06T05:11:50.702Z,0.76
2019-02-06T05:12:50.871Z,0.76
2019-02-06T05:13:51.043Z,0.83
2019-02-06T05:14:51.210Z,0.78
2019-02-06T05:15:51.377Z,0.88
2019-02-06T05:16:51.534Z,0.80
2019-02-06T05:17:51.717Z,0.81
2019-02-06T05:18:51.855Z,0.87
2019-02-06T05:19:52.019Z,0.86
2019-02-06T05:20:52.181Z,0.88
2019-02-06T05:21:52.344Z,0.84
2019-02-06T05:22:52.505Z,0.74
2019-02-06T05:23:52.677Z,0.78
2019-02-06T05:24:52.923Z,0.77
2019-02-06T05:25:53.041Z,0.77
2019-02-06T05:26:53.162Z,0.76
2019-02-06T05:27:53.363Z,0.70
2019-02-06T05:28:53.485Z,0.73
2019-02-06T05:29:53.654Z,0.80
2019-02-06T05:30:53.821Z,0.80
2019-02-06T05:31:53.982Z,0.77
2019-02-06T05:32:54.151Z,0.63
2019-02-06T05:33:54.305Z,0.68
2019-02-06T05:34:54.476Z,0.59
2019-02-06T05:35:54.644Z,0.77
2019-02-06T05:36:54.789Z,0.70
2019-02-06T05:37:55.469Z,0.80
2019-02-06T05:38:55.060Z,0.78
2019-02-06T05:39:55.242Z,0.76
2019-02-06T05:40:55.420Z,0.70
2019-02-06T05:41:55.558Z,0.63
2019-02-06T05:42:55.726Z,0.69
2019-02-06T05:43:55.896Z,0.70
2019-02-06T05:44:56.066Z,0.58
2019-02-06T05:45:56.246Z,0.66
2019-02-06T05:46:56.428Z,0.55
2019-02-06T05:47:56.652Z,0.59
2019-02-06T05:48:56.730Z,0.68
2019-02-06T05:49:56.891Z,0.58
2019-02-06T05:50:57.065Z,0.62
2019-02-06T05:51:57.223Z,0.63
2019-02-06T05:52:57.384Z,0.58
2019-02-06T05:53:57.572Z,0.62
2019-02-06T05:54:57.651Z,0.66
2019-02-06T05:55:59.896Z,0.69
2019-02-06T05:56:59.918Z,0.60
2019-02-06T05:58:00.754Z,0.68
2019-02-06T05:59:01.562Z,0.62
2019-02-06T05:59:59.291Z,0.60
2019-02-06T06:01:00.349Z,0.66
2019-02-06T06:02:00.752Z,0.60
2019-02-06T06:02:59.576Z,0.66
2019-02-06T06:04:01.982Z,0.62
2019-02-06T06:05:00.554Z,0.62
2019-02-06T06:06:00.757Z,0.62
2019-02-06T06:07:02.699Z,0.60
2019-02-06T06:08:01.352Z,0.69
2019-02-06T06:09:00.762Z,0.68
2019-02-06T06:10:01.739Z,0.63
2019-02-06T06:11:01.341Z,0.60
2019-02-06T06:12:03.322Z,0.63
2019-02-06T06:13:01.798Z,0.76
2019-02-06T06:14:00.951Z,0.60
2019-02-06T06:15:04.735Z,0.56
2019-02-06T06:16:04.817Z,0.66
2019-02-06T06:17:02.423Z,0.62
2019-02-06T06:18:01.573Z,0.60
2019-02-06T06:19:02.782Z,0.59
2019-02-06T06:20:04.712Z,0.68
2019-02-06T06:21:02.896Z,0.65
2019-02-06T06:22:02.274Z,0.60
2019-02-06T06:23:02.925Z,0.62
2019-02-06T06:24:02.490Z,0.66
2019-02-06T06:25:03.844Z,0.60
2019-02-06T06:26:03.045Z,0.63
2019-02-06T06:27:03.040Z,0.60
2019-02-06T06:28:03.182Z,0.59
2019-02-06T06:29:03.361Z,0.59
2019-02-06T06:30:03.529Z,0.63
2019-02-06T06:31:03.706Z,0.63
2019-02-06T06:32:04.037Z,0.63
2019-02-06T06:33:04.083Z,0.62
2019-02-06T06:34:04.283Z,0.66
2019-02-06T06:35:04.813Z,0.58
2019-02-06T06:36:04.580Z,0.62
2019-02-06T06:37:04.740Z,0.58
2019-02-06T06:38:04.913Z,0.74
2019-02-06T06:39:05.098Z,0.60
2019-02-06T06:40:05.276Z,0.68
2019-02-06T06:41:05.451Z,0.62
2019-02-06T06:42:05.676Z,0.65
2019-02-06T06:43:05.797Z,0.77
2019-02-06T06:44:05.961Z,0.68
2019-02-06T06:45:06.123Z,0.70
2019-02-06T06:46:06.289Z,0.65
2019-02-06T06:47:06.448Z,0.69
2019-02-06T06:48:06.628Z,0.59
2019-02-06T06:49:06.792Z,0.70
2019-02-06T06:50:06.948Z,0.73
2019-02-06T06:51:07.103Z,0.77
2019-02-06T06:52:07.391Z,0.77
2019-02-06T06:53:07.432Z,0.80
2019-02-06T06:54:07.570Z,0.73
2019-02-06T06:55:07.723Z,0.73
2019-02-06T06:56:07.893Z,0.74
2019-02-06T06:57:08.048Z,0.84
2019-02-06T06:58:08.209Z,0.76
2019-02-06T06:59:08.367Z,0.77
2019-02-06T07:00:08.533Z,0.68
2019-02-06T07:01:10.860Z,0.80
2019-02-06T07:02:08.865Z,0.76
2019-02-06T07:03:09.024Z,0.73
2019-02-06T07:04:09.189Z,0.83
2019-02-06T07:05:09.357Z,0.74
2019-02-06T07:06:09.517Z,0.83
2019-02-06T07:07:09.684Z,0.76
2019-02-06T07:08:13.396Z,0.73
2019-02-06T07:09:10.026Z,0.74
2019-02-06T07:10:12.219Z,0.77
2019-02-06T07:11:10.357Z,0.84
2019-02-06T07:12:10.519Z,0.74
2019-02-06T07:13:10.673Z,0.74
2019-02-06T07:14:10.845Z,0.88
2019-02-06T07:15:11.006Z,0.86
2019-02-06T07:16:11.203Z,0.74
2019-02-06T07:17:11.369Z,0.83
2019-02-06T07:18:11.530Z,0.84
2019-02-06T07:19:11.693Z,0.81
2019-02-06T07:20:11.854Z,0.83
2019-02-06T07:21:12.018Z,0.88
2019-02-06T07:22:12.484Z,0.83
2019-02-06T07:23:12.403Z,0.87
2019-02-06T07:24:12.585Z,0.92
2019-02-06T07:25:12.748Z,0.87
2019-02-06T07:26:12.928Z,0.91
2019-02-06T07:27:13.113Z,0.91
2019-02-06T07:28:13.306Z,0.80
2019-02-06T07:29:13.491Z,0.81
2019-02-06T07:30:13.656Z,0.88
2019-02-06T07:31:13.829Z,0.86
2019-02-06T07:32:14.333Z,0.86
2019-02-06T07:33:14.108Z,0.95
2019-02-06T07:34:14.269Z,0.99
2019-02-06T07:35:14.441Z,0.98
2019-02-06T07:36:14.596Z,0.96
2019-02-06T07:37:14.801Z,1.06
2019-02-06T07:38:23.992Z,1.02
2019-02-06T07:39:15.113Z,1.01
2019-02-06T07:40:15.277Z,1.02
2019-02-06T07:41:15.831Z,1.04
2019-02-06T07:42:15.583Z,1.16
2019-02-06T07:43:15.766Z,1.10
2019-02-06T07:44:15.972Z,1.10
2019-02-06T07:45:16.139Z,1.08
2019-02-06T07:46:16.326Z,1.22
2019-02-06T07:47:16.500Z,1.23
2019-02-06T07:48:16.685Z,1.22
2019-02-06T07:49:16.819Z,1.28
2019-02-06T07:50:16.973Z,1.22
2019-02-06T07:51:17.127Z,1.28
2019-02-06T07:52:17.351Z,1.19
2019-02-06T07:53:17.485Z,1.16
2019-02-06T07:54:17.767Z,1.17
2019-02-06T07:55:17.793Z,1.26
2019-02-06T07:56:18.094Z,1.34
2019-02-06T07:57:18.417Z,1.20
2019-02-06T07:58:18.393Z,1.31
2019-02-06T07:59:18.598Z,1.32
2019-02-06T08:00:18.776Z,1.31
2019-02-06T08:01:18.954Z,1.44
2019-02-06T08:02:19.268Z,1.38
2019-02-06T08:03:19.301Z,1.45
2019-02-06T08:04:19.472Z,1.56
2019-02-06T08:05:19.760Z,1.59
2019-02-06T08:06:19.828Z,1.55
2019-02-06T08:07:19.956Z,1.70
2019-02-06T08:08:20.414Z,1.73
2019-02-06T08:09:20.296Z,1.87
2019-02-06T08:10:20.451Z,1.88
2019-02-06T08:11:22.045Z,1.97
2019-02-06T08:12:20.783Z,2.06
2019-02-06T08:13:20.966Z,1.95
2019-02-06T08:14:21.097Z,2.08
2019-02-06T08:15:21.815Z,2.04
2019-02-06T08:16:21.428Z,2.06
2019-02-06T08:17:21.571Z,2.22
2019-02-06T08:18:21.749Z,2.07
2019-02-06T08:19:21.972Z,2.20
2019-02-06T08:20:22.278Z,2.18
2019-02-06T08:21:22.264Z,2.29
2019-02-06T08:22:22.405Z,2.39
2019-02-06T08:23:22.715Z,2.36
2019-02-06T08:24:22.787Z,2.44
2019-02-06T08:25:22.935Z,2.46
2019-02-06T08:26:23.103Z,2.64
2019-02-06T08:27:26.211Z,2.50
2019-02-06T08:28:25.388Z,2.61
2019-02-06T08:29:25.404Z,2.65
2019-02-06T08:30:23.651Z,2.71
2019-02-06T08:31:23.739Z,2.74
2019-02-06T08:32:23.939Z,2.82
2019-02-06T08:33:24.096Z,2.89
2019-02-06T08:34:24.277Z,2.85
2019-02-06T08:35:24.716Z,2.90
2019-02-06T08:36:24.647Z,2.86
2019-02-06T08:37:24.831Z,2.90
2019-02-06T08:38:25.552Z,2.82
2019-02-06T08:39:27.374Z,2.92
2019-02-06T08:40:25.465Z,2.80
2019-02-06T08:41:25.524Z,2.80
2019-02-06T08:42:25.681Z,3.01
2019-02-06T08:43:25.844Z,3.10
2019-02-06T08:44:26.028Z,3.10
2019-02-06T08:45:26.200Z,3.03
2019-02-06T08:46:26.359Z,2.95
2019-02-06T08:47:26.539Z,3.19
2019-02-06T08:48:26.885Z,3.14
2019-02-06T08:49:26.927Z,3.28
2019-02-06T08:50:27.187Z,3.32
2019-02-06T08:51:27.100Z,3.41
2019-02-06T08:52:27.254Z,3.47
2019-02-06T08:53:27.422Z,3.53
2019-02-06T08:54:27.579Z,3.58
2019-02-06T08:55:27.752Z,3.58
2019-02-06T08:56:27.950Z,3.74
2019-02-06T08:57:28.111Z,3.65
2019-02-06T08:58:28.380Z,3.77
2019-02-06T08:59:28.459Z,3.74
2019-02-06T09:00:28.627Z,3.76
2019-02-06T09:01:30.162Z,3.81
2019-02-06T09:02:29.562Z,3.83
2019-02-06T09:03:29.337Z,3.88
2019-02-06T09:04:29.249Z,4.01
2019-02-06T09:05:29.450Z,4.20
2019-02-06T09:06:29.822Z,4.23
2019-02-06T09:07:29.768Z,4.28
2019-02-06T09:08:29.979Z,4.26
2019-02-06T09:09:30.250Z,4.24
2019-02-06T09:10:30.251Z,4.20
2019-02-06T09:11:30.482Z,4.35
2019-02-06T09:12:30.616Z,4.53
2019-02-06T09:13:30.791Z,4.44
2019-02-06T09:14:30.966Z,4.48
2019-02-06T09:15:31.179Z,4.52
2019-02-06T09:16:31.325Z,4.53
2019-02-06T09:17:31.506Z,4.68
2019-02-06T09:18:31.618Z,4.89
2019-02-06T09:19:31.811Z,5.05
2019-02-06T09:20:31.888Z,5.15
2019-02-06T09:21:32.060Z,5.08
2019-02-06T09:22:32.210Z,5.17
2019-02-06T09:23:32.434Z,5.02
2019-02-06T09:24:32.506Z,5.33
2019-02-06T09:25:32.745Z,5.36
2019-02-06T09:26:42.150Z,5.66
2019-02-06T09:27:32.994Z,5.69
2019-02-06T09:28:33.140Z,5.97
2019-02-06T09:29:33.374Z,6.09
2019-02-06T09:30:33.354Z,5.99
2019-02-06T09:31:33.549Z,6.07
2019-02-06T09:32:33.752Z,6.31
2019-02-06T09:33:33.933Z,6.54
2019-02-06T09:34:33.916Z,6.85
2019-02-06T09:35:34.191Z,7.00
2019-02-06T09:36:34.622Z,7.17
2019-02-06T09:37:34.379Z,7.43
2019-02-06T09:38:34.711Z,7.54
2019-02-06T09:39:34.912Z,7.66
2019-02-06T09:40:35.207Z,7.63
2019-02-06T09:41:35.139Z,7.87
2019-02-06T09:42:35.254Z,8.09
2019-02-06T09:43:35.789Z,8.33
2019-02-06T09:44:35.585Z,8.52
2019-02-06T09:45:35.790Z,8.69
2019-02-06T09:46:36.010Z,8.85
2019-02-06T09:47:36.006Z,9.16
2019-02-06T09:48:37.168Z,9.13
2019-02-06T09:49:36.362Z,9.29
2019-02-06T09:50:36.842Z,9.22
2019-02-06T09:51:36.722Z,9.02
2019-02-06T09:52:36.826Z,8.94
2019-02-06T09:53:36.778Z,9.03
2019-02-06T09:54:36.922Z,9.14
2019-02-06T09:55:37.329Z,9.18
2019-02-06T09:56:37.332Z,9.14
2019-02-06T09:57:37.421Z,9.18
2019-02-06T09:58:37.449Z,9.31
2019-02-06T09:59:37.630Z,9.40
2019-02-06T10:00:37.921Z,9.46
2019-02-06T10:01:38.038Z,9.34
2019-02-06T10:02:38.202Z,9.41
2019-02-06T10:03:38.224Z,9.36
2019-02-06T10:04:38.525Z,9.40
2019-02-06T10:05:40.524Z,9.41
2019-02-06T10:06:38.999Z,9.56
2019-02-06T10:07:39.109Z,9.62
2019-02-06T10:08:39.229Z,9.73
2019-02-06T10:09:39.619Z,9.80
2019-02-06T10:10:39.575Z,9.80
2019-02-06T10:11:39.758Z,9.86
2019-02-06T10:12:39.856Z,10.01
2019-02-06T10:13:39.993Z,9.91
2019-02-06T10:14:40.156Z,10.02
2019-02-06T10:15:40.335Z,10.02
2019-02-06T10:16:41.194Z,10.05
2019-02-06T10:17:40.533Z,10.09
2019-02-06T10:18:40.662Z,10.20
2019-02-06T10:19:42.501Z,10.35
2019-02-06T10:20:41.051Z,10.33
2019-02-06T10:21:41.261Z,10.19
2019-02-06T10:22:41.539Z,10.41
2019-02-06T10:23:42.127Z,10.38
2019-02-06T10:24:41.460Z,10.41
2019-02-06T10:25:41.641Z,10.38
2019-02-06T10:26:41.957Z,10.69
2019-02-06T10:27:42.009Z,10.93
2019-02-06T10:28:42.224Z,10.97
2019-02-06T10:29:42.398Z,10.97
2019-02-06T10:30:42.584Z,11.00
2019-02-06T10:31:42.752Z,11.14
2019-02-06T10:32:42.917Z,10.97
2019-02-06T10:33:43.110Z,11.15
2019-02-06T10:34:43.341Z,11.30
2019-02-06T10:35:43.398Z,11.50
2019-02-06T10:36:43.647Z,11.72
2019-02-06T10:37:43.741Z,11.81
2019-02-06T10:38:43.955Z,12.12
2019-02-06T10:39:44.330Z,12.06
2019-02-06T10:40:44.276Z,12.04
2019-02-06T10:41:44.492Z,12.32
2019-02-06T10:42:44.629Z,12.62
2019-02-06T10:43:44.707Z,12.90
2019-02-06T10:44:45.008Z,13.05
2019-02-06T10:45:45.130Z,12.95
2019-02-06T10:46:45.253Z,13.03
2019-02-06T10:47:45.338Z,13.01
2019-02-06T10:48:45.548Z,12.76
2019-02-06T10:49:45.632Z,12.78
2019-02-06T10:50:45.869Z,12.64
2019-02-06T10:51:45.982Z,12.46
2019-02-06T10:52:48.227Z,12.36
2019-02-06T10:53:46.441Z,12.54
2019-02-06T10:54:46.558Z,12.55
2019-02-06T10:55:46.856Z,12.43
2019-02-06T10:56:46.780Z,12.61
2019-02-06T10:57:47.173Z,12.83
2019-02-06T10:58:47.085Z,12.85
2019-02-06T10:59:47.317Z,12.68
2019-02-06T11:00:47.415Z,12.62
2019-02-06T11:01:47.586Z,12.35
2019-02-06T11:02:47.726Z,12.15
2019-02-06T11:03:47.830Z,11.80
2019-02-06T11:04:48.063Z,11.68
2019-02-06T11:05:48.209Z,11.41
2019-02-06T11:06:48.321Z,11.14
2019-02-06T11:07:48.680Z,10.89
2019-02-06T11:08:48.852Z,10.84
2019-02-06T11:09:48.988Z,10.90
2019-02-06T11:10:49.085Z,10.94
2019-02-06T11:11:49.285Z,10.93
2019-02-06T11:12:49.455Z,10.84
2019-02-06T11:13:49.908Z,10.97
2019-02-06T11:14:49.814Z,10.87
2019-02-06T11:15:49.931Z,10.86
2019-02-06T11:16:50.022Z,10.96
2019-02-06T11:17:50.166Z,10.86
2019-02-06T11:18:50.351Z,11.04
2019-02-06T11:19:50.569Z,10.79
2019-02-06T11:20:50.783Z,10.84
2019-02-06T11:21:50.910Z,10.67
2019-02-06T11:22:51.025Z,10.79
2019-02-06T11:23:51.122Z,10.76
2019-02-06T11:24:51.313Z,10.86
2019-02-06T11:25:51.439Z,10.84
2019-02-06T11:26:51.646Z,11.04
2019-02-06T11:27:51.844Z,11.25
2019-02-06T11:28:52.091Z,11.47
2019-02-06T11:29:52.191Z,11.48
2019-02-06T11:30:52.375Z,11.35
2019-02-06T11:31:52.630Z,11.29
2019-02-06T11:32:52.718Z,11.30
2019-02-06T11:33:52.921Z,11.43
2019-02-06T11:34:53.137Z,11.43
2019-02-06T11:35:53.329Z,11.45
2019-02-06T11:36:54.490Z,11.57
2019-02-06T11:37:53.706Z,11.66
2019-02-06T11:38:53.789Z,11.73
2019-02-06T11:39:58.051Z,11.68
2019-02-06T11:40:54.253Z,11.57
2019-02-06T11:41:54.308Z,11.50
2019-02-06T11:42:54.545Z,11.65
2019-02-06T11:43:54.648Z,12.00
2019-02-06T11:44:54.732Z,11.90
2019-02-06T11:45:54.963Z,12.07
2019-02-06T11:47:02.884Z,11.87
2019-02-06T11:48:03.403Z,12.02
2019-02-06T11:48:55.437Z,11.99
2019-02-06T11:49:55.637Z,11.88
2019-02-06T11:50:55.867Z,12.06
2019-02-06T11:51:56.062Z,12.13
2019-02-06T11:52:56.097Z,12.49
2019-02-06T11:53:56.317Z,12.55
2019-02-06T11:54:56.700Z,12.58
2019-02-06T11:55:56.682Z,12.67
2019-02-06T11:56:56.772Z,13.00
2019-02-06T11:57:56.916Z,13.15
2019-02-06T11:58:57.011Z,13.37
2019-02-06T11:59:58.790Z,13.15
2019-02-06T12:00:57.409Z,13.20
2019-02-06T12:01:57.620Z,13.35
2019-02-06T12:02:57.829Z,13.54
2019-02-06T12:03:58.028Z,13.71
2019-02-06T12:04:58.241Z,13.72
2019-02-06T12:05:59.073Z,14.04
2019-02-06T12:06:58.648Z,14.22
2019-02-06T12:08:00.016Z,14.35
2019-02-06T12:09:00.064Z,14.28
2019-02-06T12:10:09.428Z,14.23
2019-02-06T12:10:59.366Z,14.11
2019-02-06T12:11:59.462Z,14.05
2019-02-06T12:13:00.937Z,14.20
2019-02-06T12:13:59.976Z,14.36
2019-02-06T12:14:59.937Z,14.47
2019-02-06T12:16:00.018Z,14.66
2019-02-06T12:17:00.912Z,14.55
2019-02-06T12:18:00.800Z,14.58
2019-02-06T12:19:02.197Z,14.89
2019-02-06T12:20:00.696Z,14.77
2019-02-06T12:21:01.675Z,14.62
2019-02-06T12:22:01.124Z,14.82
2019-02-06T12:23:01.289Z,14.78
2019-02-06T12:24:01.427Z,14.63
2019-02-06T12:25:01.716Z,14.60
2019-02-06T12:26:01.666Z,14.59
2019-02-06T12:27:01.866Z,14.51
2019-02-06T12:28:04.963Z,14.72
2019-02-06T12:29:02.711Z,14.86
2019-02-06T12:30:02.506Z,14.88
2019-02-06T12:31:02.734Z,14.92
2019-02-06T12:32:02.938Z,14.47
2019-02-06T12:33:03.181Z,14.45
2019-02-06T12:34:03.351Z,14.07
2019-02-06T12:35:03.587Z,13.90
2019-02-06T12:36:03.712Z,13.96
2019-02-06T12:37:03.890Z,13.93
2019-02-06T12:38:04.106Z,14.11
2019-02-06T12:39:05.186Z,14.18
2019-02-06T12:40:04.583Z,14.23
2019-02-06T12:41:04.750Z,14.33
2019-02-06T12:42:04.847Z,14.48
2019-02-06T12:43:05.510Z,14.55
2019-02-06T12:44:06.143Z,14.63
2019-02-06T12:45:05.249Z,14.51
2019-02-06T12:46:06.725Z,14.51
2019-02-06T12:47:06.112Z,14.33
2019-02-06T12:48:05.735Z,14.25
2019-02-06T12:49:06.767Z,14.08
2019-02-06T12:50:06.574Z,13.97
2019-02-06T12:51:06.982Z,13.70
2019-02-06T12:52:08.217Z,13.50
2019-02-06T12:53:06.841Z,13.35
2019-02-06T12:54:06.954Z,13.19
2019-02-06T12:55:07.121Z,13.22
2019-02-06T12:56:07.798Z,13.31
2019-02-06T12:57:07.861Z,13.30
2019-02-06T12:58:07.746Z,13.25
2019-02-06T12:59:08.180Z,13.23
2019-02-06T13:00:07.836Z,13.16
2019-02-06T13:01:07.915Z,13.47
2019-02-06T13:02:08.162Z,13.60
2019-02-06T13:03:08.665Z,13.77
2019-02-06T13:04:08.620Z,13.70
2019-02-06T13:05:08.919Z,13.93
2019-02-06T13:06:08.734Z,13.85
2019-02-06T13:07:08.835Z,13.67
2019-02-06T13:08:08.929Z,13.85
2019-02-06T13:09:09.393Z,13.57
2019-02-06T13:10:09.532Z,13.18
2019-02-06T13:11:09.522Z,12.98
2019-02-06T13:12:09.707Z,12.85
2019-02-06T13:13:10.131Z,12.35
2019-02-06T13:14:10.201Z,12.29
2019-02-06T13:15:10.186Z,12.04